Time;durP1;ratioP1;P1;durP2;ratioP2;P2;SDS_P1;SDS_P2;PMS_P1;PMS_P2;Temp;Humidity;BMP_temperature;BMP_pressure;BME280_temperature;BME280_humidity;BME280_pressure;Samples;Min_cycle;Max_cycle;Signal;HPM_P1;HPM_P2
2024/04/03 00:01:17;;;;;;;2.20;2.00;;;10.30;99.90;;;;;;5042747;28;20196;-61
2024/04/03 00:03:43;;;;;;;2.60;2.03;;;10.20;99.90;;;;;;5049963;28;20649;-60
2024/04/03 00:06:09;;;;;;;2.47;2.27;;;10.20;99.90;;;;;;5052434;28;20605;-61
2024/04/03 00:08:35;;;;;;;3.80;2.00;;;10.30;99.90;;;;;;5048839;28;20503;-61
2024/04/03 00:11:00;;;;;;;2.83;2.20;;;10.30;99.90;;;;;;5053028;28;20507;-62
2024/04/03 00:13:28;;;;;;;2.67;2.20;;;10.30;99.90;;;;;;5051848;28;20887;-62
2024/04/03 00:15:54;;;;;;;2.40;2.20;;;10.30;99.90;;;;;;5050361;28;20539;-62
2024/04/03 00:18:20;;;;;;;2.33;2.13;;;10.30;99.90;;;;;;5048668;28;20436;-61
2024/04/03 00:20:45;;;;;;;2.73;2.47;;;10.30;99.90;;;;;;5047079;28;20487;-61
2024/04/03 00:23:11;;;;;;;2.40;2.00;;;10.20;99.90;;;;;;5030634;28;20665;-62
2024/04/03 00:25:37;;;;;;;3.63;2.73;;;10.20;99.90;;;;;;5045513;28;20217;-61
2024/04/03 00:28:02;;;;;;;2.43;2.03;;;10.20;99.90;;;;;;5052481;28;20175;-61
2024/04/03 00:30:28;;;;;;;5.50;2.57;;;10.20;99.90;;;;;;5051758;28;20504;-61
2024/04/03 00:32:54;;;;;;;2.83;2.17;;;10.20;99.90;;;;;;5052564;28;20201;-60
2024/04/03 00:35:19;;;;;;;4.03;2.80;;;10.20;99.90;;;;;;5038580;28;20257;-59
2024/04/03 00:37:45;;;;;;;3.47;2.80;;;10.20;99.90;;;;;;5049645;28;20190;-60
2024/04/03 00:40:11;;;;;;;4.33;3.03;;;10.20;99.90;;;;;;5050718;28;20594;-61
2024/04/03 00:42:37;;;;;;;2.93;2.63;;;10.20;99.90;;;;;;5051090;28;20535;-61
2024/04/03 00:45:02;;;;;;;3.30;2.80;;;10.10;99.90;;;;;;5051906;28;20437;-61
2024/04/03 00:47:28;;;;;;;2.97;2.77;;;10.20;99.90;;;;;;5051543;28;20214;-61
2024/04/03 00:49:55;;;;;;;2.90;2.70;;;10.20;99.90;;;;;;5051693;28;20422;-61
2024/04/03 00:52:21;;;;;;;6.03;2.77;;;10.10;99.90;;;;;;5051648;28;20179;-61
2024/04/03 00:54:47;;;;;;;4.63;2.47;;;10.10;99.90;;;;;;5051647;28;20908;-61
2024/04/03 00:57:14;;;;;;;3.67;2.83;;;10.10;99.90;;;;;;5051320;28;20215;-62
2024/04/03 00:59:40;;;;;;;4.10;2.70;;;10.10;99.90;;;;;;5051506;28;20417;-62
2024/04/03 01:02:06;;;;;;;2.93;2.73;;;10.10;99.90;;;;;;5051305;28;20465;-62
2024/04/03 01:04:32;;;;;;;3.33;2.50;;;10.10;99.90;;;;;;5050721;28;20606;-61
2024/04/03 01:07:06;;;;;;;4.57;3.63;;;10.10;99.90;;;;;;5050695;28;20473;-61
2024/04/03 01:12:05;;;;;;;3.13;2.83;;;10.10;99.90;;;;;;5031636;28;20474;-59
2024/04/03 01:14:31;;;;;;;3.20;2.90;;;10.00;99.90;;;;;;5032534;28;20423;-56
2024/04/03 01:16:57;;;;;;;2.90;2.70;;;10.00;99.90;;;;;;5030763;28;20801;-58
2024/04/03 01:19:22;;;;;;;4.03;2.67;;;9.90;99.90;;;;;;5013721;28;20185;-60
2024/04/03 01:21:48;;;;;;;4.60;2.90;;;9.90;99.90;;;;;;5033233;28;20481;-56
2024/04/03 01:24:14;;;;;;;12.03;4.37;;;9.90;99.90;;;;;;5028113;28;20566;-56
2024/04/03 01:26:39;;;;;;;4.33;3.17;;;9.90;99.90;;;;;;5033202;28;20267;-57
2024/04/03 01:29:05;;;;;;;6.27;3.47;;;9.90;99.90;;;;;;5033164;28;20180;-57
2024/04/03 01:31:30;;;;;;;3.10;2.80;;;9.90;99.90;;;;;;5032787;28;20330;-57
2024/04/03 01:33:56;;;;;;;4.37;3.30;;;9.90;99.90;;;;;;5033078;28;20270;-57
2024/04/03 01:36:21;;;;;;;5.57;3.60;;;9.90;99.90;;;;;;5029334;28;20700;-58
2024/04/03 01:38:47;;;;;;;6.10;3.40;;;9.90;99.90;;;;;;5032902;28;20219;-58
2024/04/03 01:41:14;;;;;;;5.37;3.50;;;9.80;99.90;;;;;;5023065;28;20262;-59
2024/04/03 01:43:39;;;;;;;3.17;2.97;;;9.80;99.90;;;;;;4998077;28;20540;-56
2024/04/03 01:46:05;;;;;;;3.50;3.07;;;9.80;99.90;;;;;;5029107;28;20472;-59
2024/04/03 01:48:31;;;;;;;6.70;4.77;;;9.80;99.90;;;;;;5012715;28;20192;-57
2024/04/03 01:50:56;;;;;;;5.77;3.40;;;9.80;99.90;;;;;;5013077;28;20690;-58
2024/04/03 01:53:22;;;;;;;4.67;3.90;;;9.80;99.90;;;;;;5012826;28;20263;-59
2024/04/03 01:55:58;;;;;;;4.63;3.80;;;9.80;99.90;;;;;;5012819;28;20184;-55
2024/04/03 01:58:24;;;;;;;4.00;3.30;;;9.80;99.90;;;;;;5012589;28;20222;-60
2024/04/03 02:00:51;;;;;;;7.60;4.47;;;9.80;99.90;;;;;;5012455;28;20803;-58
2024/04/03 02:03:19;;;;;;;5.63;3.03;;;9.80;99.90;;;;;;5012510;28;20427;-58
2024/04/03 02:05:45;;;;;;;6.60;4.30;;;9.90;99.90;;;;;;5012772;28;20420;-58
2024/04/03 02:08:12;;;;;;;4.63;3.97;;;9.90;99.90;;;;;;5012619;28;20442;-58
2024/04/03 02:10:38;;;;;;;5.50;3.60;;;9.90;99.90;;;;;;5011343;28;20462;-55
2024/04/03 02:13:03;;;;;;;5.13;4.00;;;10.00;99.90;;;;;;5013354;28;20795;-53
2024/04/03 02:15:29;;;;;;;6.10;4.70;;;10.00;99.90;;;;;;5012347;28;20685;-54
2024/04/03 02:17:54;;;;;;;6.20;4.50;;;10.00;99.90;;;;;;5012524;28;20243;-58
2024/04/03 02:20:20;;;;;;;5.83;3.80;;;10.00;99.90;;;;;;5012087;28;20670;-57
2024/04/03 02:22:46;;;;;;;6.27;3.80;;;10.00;99.90;;;;;;5012378;28;20181;-56
2024/04/03 02:25:12;;;;;;;4.33;3.47;;;10.00;99.90;;;;;;5012251;28;20180;-58
2024/04/03 02:27:38;;;;;;;5.80;3.77;;;10.00;99.90;;;;;;5011454;28;20423;-55
2024/04/03 02:30:04;;;;;;;4.50;4.10;;;10.00;99.90;;;;;;5012000;28;20988;-58
2024/04/03 02:32:29;;;;;;;4.57;3.83;;;10.10;99.90;;;;;;5012210;28;20227;-57
2024/04/03 02:34:55;;;;;;;5.43;3.87;;;10.10;99.90;;;;;;5012030;28;20470;-57
2024/04/03 02:37:21;;;;;;;5.27;4.50;;;10.00;99.90;;;;;;5012061;28;20276;-58
2024/04/03 02:39:47;;;;;;;12.90;4.57;;;10.10;99.90;;;;;;5011973;28;20549;-57
2024/04/03 02:42:12;;;;;;;5.77;3.43;;;10.00;99.90;;;;;;5012025;28;20208;-57
2024/04/03 02:44:38;;;;;;;4.60;4.20;;;10.10;99.90;;;;;;5011861;28;20238;-57
2024/04/03 02:47:03;;;;;;;6.53;3.83;;;10.10;99.90;;;;;;5011963;28;20176;-59
2024/04/03 02:49:29;;;;;;;4.70;4.00;;;10.10;99.90;;;;;;5011873;28;20199;-57
2024/04/03 02:51:55;;;;;;;12.80;4.57;;;10.10;99.90;;;;;;5012009;28;20548;-57
2024/04/03 02:54:21;;;;;;;6.87;3.80;;;10.10;99.90;;;;;;5011768;28;20419;-57
2024/04/03 02:56:46;;;;;;;6.43;4.83;;;10.10;99.90;;;;;;5012007;28;20628;-58
2024/04/03 02:59:12;;;;;;;5.07;3.93;;;10.20;99.90;;;;;;5011962;28;20180;-58
2024/04/03 03:01:37;;;;;;;5.47;4.87;;;10.10;99.90;;;;;;5011837;28;20210;-57
2024/04/03 03:04:03;;;;;;;6.80;4.50;;;10.10;99.90;;;;;;5012043;28;20181;-57
2024/04/03 03:06:28;;;;;;;4.80;4.40;;;10.10;99.90;;;;;;5011856;28;20571;-58
2024/04/03 03:08:54;;;;;;;6.80;4.77;;;10.20;99.90;;;;;;5011930;28;20267;-56
2024/04/03 03:11:19;;;;;;;4.90;4.30;;;10.20;99.90;;;;;;5011600;28;20214;-57
2024/04/03 03:13:45;;;;;;;5.03;4.50;;;10.10;99.90;;;;;;5011896;28;20184;-58
2024/04/03 03:16:10;;;;;;;7.37;5.63;;;10.10;99.90;;;;;;5011757;28;20238;-57
2024/04/03 03:18:36;;;;;;;6.13;5.03;;;10.10;99.90;;;;;;5011838;28;20218;-56
2024/04/03 03:21:02;;;;;;;7.33;5.20;;;10.00;99.90;;;;;;5011716;28;20228;-56
2024/04/03 03:23:27;;;;;;;7.23;5.37;;;10.00;99.90;;;;;;5011800;28;20587;-57
2024/04/03 03:25:53;;;;;;;8.13;5.17;;;10.00;99.90;;;;;;5011813;28;20177;-56
2024/04/03 03:28:20;;;;;;;7.27;5.20;;;9.90;99.90;;;;;;5011682;28;20179;-55
2024/04/03 03:30:49;;;;;;;6.00;4.97;;;9.80;99.90;;;;;;5012048;28;20559;-57
2024/04/03 03:33:16;;;;;;;8.33;6.40;;;9.80;99.90;;;;;;5011702;28;20780;-57
2024/04/03 03:35:42;;;;;;;7.20;6.10;;;9.80;99.90;;;;;;5011395;28;20459;-57
2024/04/03 03:38:07;;;;;;;12.73;7.07;;;9.70;99.90;;;;;;5013570;28;20418;-58
2024/04/03 03:40:37;;;;;;;5.03;4.53;;;9.70;99.90;;;;;;5015267;28;20871;-54
2024/04/03 03:43:03;;;;;;;5.63;4.23;;;9.70;99.90;;;;;;5013700;28;20190;-57
2024/04/03 03:45:28;;;;;;;5.57;3.60;;;9.60;99.90;;;;;;5015328;28;20419;-58
2024/04/03 03:47:54;;;;;;;3.17;2.80;;;9.40;99.90;;;;;;5007735;28;20172;-56
2024/04/03 03:53:04;;;;;;;4.60;2.70;;;9.20;99.90;;;;;;5015260;28;20720;-57
2024/04/03 03:55:30;;;;;;;2.80;2.50;;;9.20;99.90;;;;;;5014946;28;20418;-57
2024/04/03 03:57:56;;;;;;;2.70;2.50;;;9.10;99.90;;;;;;5015087;28;20714;-57
2024/04/03 04:00:22;;;;;;;3.53;2.43;;;9.00;99.90;;;;;;5014667;28;20435;-57
2024/04/03 04:02:50;;;;;;;2.20;2.00;;;9.00;99.90;;;;;;5015032;28;20543;-57
2024/04/03 04:05:17;;;;;;;6.93;2.70;;;9.00;99.90;;;;;;5015043;28;20425;-56
2024/04/03 04:07:43;;;;;;;3.20;3.00;;;9.00;99.90;;;;;;5014626;28;20443;-57
2024/04/03 04:10:09;;;;;;;2.60;2.33;;;9.00;99.90;;;;;;5009412;28;20542;-57
2024/04/03 04:12:35;;;;;;;4.90;3.07;;;9.00;99.90;;;;;;5014726;28;20431;-54
2024/04/03 04:15:00;;;;;;;3.50;3.20;;;9.00;99.90;;;;;;5014523;28;20220;-53
2024/04/03 04:17:26;;;;;;;3.50;3.17;;;8.90;99.90;;;;;;5013980;28;20553;-58
2024/04/03 04:19:51;;;;;;;3.50;3.20;;;9.00;99.90;;;;;;5014493;28;20209;-57
2024/04/03 04:22:17;;;;;;;3.63;3.33;;;8.90;99.90;;;;;;5014629;28;20283;-56
2024/04/03 04:24:45;;;;;;;3.77;3.47;;;9.00;99.90;;;;;;5014080;28;20190;-58
2024/04/03 04:27:11;;;;;;;9.70;4.67;;;9.00;99.90;;;;;;5014336;28;20204;-55
2024/04/03 04:29:37;;;;;;;6.97;4.30;;;9.00;99.90;;;;;;5013276;28;20860;-54
2024/04/03 04:32:10;;;;;;;7.50;5.30;;;9.00;99.90;;;;;;5014660;28;20479;-56
2024/04/03 04:34:42;;;;;;;10.10;6.03;;;9.00;99.90;;;;;;5014289;28;20476;-59
2024/04/03 04:37:08;;;;;;;10.67;5.63;;;9.00;99.90;;;;;;5013845;28;20430;-56
2024/04/03 04:39:34;;;;;;;5.57;5.00;;;9.00;99.90;;;;;;5014009;28;20425;-56
2024/04/03 04:42:00;;;;;;;6.53;5.83;;;9.00;99.90;;;;;;5014487;28;20520;-58
2024/04/03 04:44:26;;;;;;;8.90;6.60;;;9.00;99.90;;;;;;5013981;28;20819;-57
2024/04/03 04:46:53;;;;;;;6.33;4.60;;;9.00;99.90;;;;;;5008392;28;20439;-57
2024/04/03 04:49:21;;;;;;;12.70;5.60;;;9.00;99.90;;;;;;5005231;28;20544;-55
2024/04/03 04:51:47;;;;;;;8.73;5.80;;;9.00;99.90;;;;;;5012684;28;20818;-55
2024/04/03 04:54:15;;;;;;;11.00;7.87;;;9.00;99.90;;;;;;5014057;28;20423;-57
2024/04/03 04:56:41;;;;;;;5.10;4.37;;;9.00;99.90;;;;;;5013767;28;20438;-57
2024/04/03 04:59:08;;;;;;;6.77;4.83;;;9.00;99.90;;;;;;5013961;28;20430;-57
2024/04/03 05:01:34;;;;;;;6.87;4.20;;;9.00;99.90;;;;;;5013439;28;20463;-59
2024/04/03 05:04:02;;;;;;;5.90;4.37;;;9.00;99.90;;;;;;4996187;28;20422;-57
2024/04/03 05:06:27;;;;;;;7.03;5.23;;;9.00;99.90;;;;;;5013768;28;20509;-55
2024/04/03 05:08:53;;;;;;;7.10;4.50;;;9.00;99.90;;;;;;5007480;28;20532;-56
2024/04/03 05:11:19;;;;;;;6.07;4.47;;;9.00;99.90;;;;;;5010156;28;20238;-58
2024/04/03 05:13:47;;;;;;;8.33;6.03;;;9.00;99.90;;;;;;5013283;28;20180;-58
2024/04/03 05:16:15;;;;;;;5.90;4.43;;;9.00;99.90;;;;;;5013320;28;20186;-55
2024/04/03 05:18:44;;;;;;;7.77;3.97;;;9.10;99.90;;;;;;5013267;28;20422;-55
2024/04/03 05:21:10;;;;;;;4.63;4.13;;;9.10;99.90;;;;;;5012595;28;20474;-53
2024/04/03 05:23:35;;;;;;;4.90;4.17;;;9.00;99.90;;;;;;5012753;28;20415;-57
2024/04/03 05:26:03;;;;;;;8.47;4.50;;;9.10;99.90;;;;;;5013329;28;20932;-56
2024/04/03 05:28:30;;;;;;;5.30;4.37;;;9.10;99.90;;;;;;5011126;28;20270;-58
2024/04/03 05:31:04;;;;;;;7.63;4.83;;;9.20;99.90;;;;;;5004755;28;20462;-58
2024/04/03 05:33:33;;;;;;;5.80;3.80;;;9.20;99.90;;;;;;5010688;28;20417;-55
2024/04/03 05:36:00;;;;;;;6.50;4.10;;;9.20;99.90;;;;;;5013099;28;20494;-56
2024/04/03 05:38:27;;;;;;;9.20;4.20;;;9.20;99.90;;;;;;5009761;28;20431;-54
2024/04/03 05:40:54;;;;;;;6.17;4.70;;;9.30;99.90;;;;;;5012733;28;20471;-56
2024/04/03 05:43:20;;;;;;;8.03;5.10;;;9.40;99.90;;;;;;5012847;28;20999;-56
2024/04/03 05:45:47;;;;;;;5.03;4.10;;;9.30;99.90;;;;;;5012533;28;20431;-55
2024/04/03 05:48:14;;;;;;;5.13;4.47;;;9.30;99.90;;;;;;5013274;28;20483;-57
2024/04/03 05:50:40;;;;;;;6.90;4.77;;;9.30;99.90;;;;;;5006074;28;20466;-57
2024/04/03 05:53:05;;;;;;;7.90;5.20;;;9.40;99.90;;;;;;5005535;28;20428;-57
2024/04/03 05:55:31;;;;;;;6.73;4.77;;;9.60;99.90;;;;;;4998609;28;20211;-58
2024/04/03 05:57:57;;;;;;;6.93;5.23;;;9.50;99.90;;;;;;5000698;28;20180;-59
2024/04/03 06:00:23;;;;;;;6.00;4.30;;;9.70;99.90;;;;;;5008415;28;20199;-54
2024/04/03 06:02:48;;;;;;;8.13;4.00;;;9.60;99.90;;;;;;5003359;28;20415;-58
2024/04/03 06:05:14;;;;;;;5.80;4.33;;;9.60;99.90;;;;;;5001930;28;20180;-58
2024/04/03 06:07:42;;;;;;;8.43;4.63;;;9.80;99.90;;;;;;5004474;28;20295;-62
2024/04/03 06:10:08;;;;;;;7.77;4.13;;;9.70;99.90;;;;;;4994190;28;20450;-58
2024/04/03 06:12:34;;;;;;;8.73;5.03;;;9.80;99.90;;;;;;4996369;28;20420;-59
2024/04/03 06:15:00;;;;;;;5.53;4.20;;;9.90;99.90;;;;;;4997942;28;20415;-61
2024/04/03 06:17:26;;;;;;;7.03;4.70;;;9.90;99.90;;;;;;5001601;28;20430;-58
2024/04/03 06:19:51;;;;;;;4.60;4.20;;;9.80;99.90;;;;;;5001986;28;20633;-56
2024/04/03 06:22:17;;;;;;;7.37;4.87;;;9.80;99.90;;;;;;5004747;28;20243;-58
2024/04/03 06:24:42;;;;;;;6.80;4.57;;;9.70;99.90;;;;;;5001309;28;20200;-57
2024/04/03 06:27:08;;;;;;;8.30;4.90;;;9.90;99.90;;;;;;5002054;28;20177;-57
2024/04/03 06:29:34;;;;;;;7.33;5.20;;;10.20;99.90;;;;;;4996003;28;20181;-57
2024/04/03 06:32:01;;;;;;;7.30;4.13;;;10.10;99.90;;;;;;4998226;28;20996;-58
2024/04/03 06:34:27;;;;;;;5.87;5.27;;;10.00;99.90;;;;;;5006934;28;20181;-58
2024/04/03 06:36:52;;;;;;;6.77;4.50;;;10.20;99.90;;;;;;5002523;28;20431;-58
2024/04/03 06:39:19;;;;;;;8.27;4.73;;;10.00;99.90;;;;;;5003341;28;20430;-58
2024/04/03 06:41:44;;;;;;;9.23;4.77;;;10.00;99.90;;;;;;4994959;28;20201;-58
2024/04/03 06:44:10;;;;;;;4.30;4.00;;;10.10;99.90;;;;;;4996242;28;20431;-59
2024/04/03 06:46:35;;;;;;;5.60;3.87;;;10.10;99.90;;;;;;4996714;28;20635;-58
2024/04/03 06:49:01;;;;;;;4.30;3.83;;;10.10;99.90;;;;;;4998669;28;20176;-58
2024/04/03 06:51:27;;;;;;;6.33;3.70;;;10.10;99.90;;;;;;4997755;28;20211;-55
2024/04/03 06:53:53;;;;;;;5.50;4.90;;;10.30;99.90;;;;;;5001583;28;20188;-58
2024/04/03 06:56:19;;;;;;;4.90;4.10;;;10.10;99.90;;;;;;4986373;28;20193;-59
2024/04/03 06:58:44;;;;;;;7.53;4.90;;;10.30;99.90;;;;;;4994421;28;20836;-57
2024/04/03 07:01:12;;;;;;;4.80;4.40;;;10.30;99.90;;;;;;4995091;28;20832;-57
2024/04/03 07:03:38;;;;;;;4.40;4.00;;;10.30;99.90;;;;;;4997087;28;20207;-58
2024/04/03 07:06:05;;;;;;;4.50;4.13;;;10.00;99.90;;;;;;4998839;28;20481;-58
2024/04/03 07:08:32;;;;;;;5.70;4.40;;;10.00;99.90;;;;;;5001885;28;20501;-59
2024/04/03 07:10:58;;;;;;;6.13;4.20;;;10.10;99.90;;;;;;5010399;28;20466;-59
2024/04/03 07:13:24;;;;;;;5.50;4.70;;;10.00;99.90;;;;;;5011376;28;20807;-58
2024/04/03 07:15:50;;;;;;;6.13;4.77;;;10.00;99.90;;;;;;5012197;28;20426;-58
2024/04/03 07:18:17;;;;;;;8.70;4.60;;;9.90;99.90;;;;;;5011973;28;20926;-59
2024/04/03 07:20:52;;;;;;;7.70;5.23;;;9.90;99.90;;;;;;5011660;28;20477;-56
2024/04/03 07:23:18;;;;;;;6.27;4.80;;;10.00;99.90;;;;;;5011732;28;20423;-58
2024/04/03 07:25:43;;;;;;;7.57;4.80;;;10.10;99.90;;;;;;5011352;28;20481;-59
2024/04/03 07:28:12;;;;;;;5.33;4.73;;;10.20;99.90;;;;;;5000032;28;20231;-58
2024/04/03 07:30:42;;;;;;;5.37;4.50;;;10.20;99.90;;;;;;5011617;28;20208;-60
2024/04/03 07:33:09;;;;;;;6.80;4.60;;;10.20;99.90;;;;;;5011821;28;20423;-57
2024/04/03 07:35:35;;;;;;;6.17;4.40;;;10.30;99.90;;;;;;5011414;28;20498;-58
2024/04/03 07:38:03;;;;;;;6.80;4.57;;;10.40;99.90;;;;;;4993864;28;20518;-58
2024/04/03 07:40:28;;;;;;;5.53;4.50;;;10.50;99.90;;;;;;5011242;28;20552;-57
2024/04/03 07:42:54;;;;;;;4.47;3.90;;;10.50;99.90;;;;;;5011460;28;20431;-59
2024/04/03 07:45:19;;;;;;;7.33;5.40;;;10.60;99.90;;;;;;5045492;22;20272;-61
2024/04/03 07:47:47;;;;;;;6.17;5.03;;;10.60;99.90;;;;;;5027356;28;20183;-61
2024/04/03 07:50:13;;;;;;;5.00;4.30;;;10.50;99.90;;;;;;5030199;28;20172;-61
2024/04/03 07:52:38;;;;;;;7.03;4.70;;;10.50;99.90;;;;;;5024418;28;20440;-61
2024/04/03 07:55:22;;;;;;;6.80;4.83;;;10.50;99.90;;;;;;5018045;28;20457;-60
2024/04/03 07:57:48;;;;;;;4.40;4.00;;;10.40;99.90;;;;;;5010587;28;20191;-61
2024/04/03 08:00:13;;;;;;;8.70;4.80;;;10.30;99.90;;;;;;5001932;28;21027;-62
2024/04/03 08:02:41;;;;;;;6.83;4.90;;;10.40;99.90;;;;;;5007197;28;20677;-61
2024/04/03 08:05:09;;;;;;;8.90;5.20;;;10.50;99.90;;;;;;5009028;28;20302;-61
2024/04/03 08:07:35;;;;;;;6.73;4.53;;;10.60;99.90;;;;;;5010402;28;20427;-61
2024/04/03 08:10:05;;;;;;;8.53;4.63;;;10.70;99.90;;;;;;5011330;28;20486;-61
2024/04/03 08:12:32;;;;;;;7.90;4.37;;;10.80;99.90;;;;;;5011430;28;20462;-61
2024/04/03 08:14:58;;;;;;;6.60;4.87;;;10.80;99.90;;;;;;5009176;28;20535;-61
2024/04/03 08:17:24;;;;;;;6.07;4.20;;;10.90;99.90;;;;;;5010069;28;20422;-61
2024/04/03 08:19:57;;;;;;;5.57;5.07;;;10.80;99.90;;;;;;5009723;28;20530;-59
2024/04/03 08:22:23;;;;;;;7.53;4.33;;;11.00;99.90;;;;;;5010136;28;20463;-59
2024/04/03 08:24:49;;;;;;;5.57;4.70;;;11.30;99.90;;;;;;5012738;28;20457;-61
2024/04/03 08:27:16;;;;;;;6.80;4.33;;;12.00;99.90;;;;;;5019123;28;20415;-61
2024/04/03 08:29:48;;;;;;;6.03;4.37;;;12.60;99.90;;;;;;5015970;28;20446;-68
2024/04/03 08:32:14;;;;;;;5.07;3.90;;;13.10;99.90;;;;;;5015063;28;20430;-61
2024/04/03 08:34:39;;;;;;;4.70;3.80;;;13.60;99.90;;;;;;5016113;28;20456;-61
2024/04/03 08:37:06;;;;;;;3.70;3.40;;;13.20;99.90;;;;;;5026134;28;20901;-62
2024/04/03 08:39:33;;;;;;;3.83;3.53;;;13.80;99.90;;;;;;5017132;28;20556;-61
2024/04/03 08:42:00;;;;;;;4.07;3.57;;;13.60;99.90;;;;;;5016381;28;20466;-60
2024/04/03 08:44:31;;;;;;;5.57;3.90;;;13.50;99.90;;;;;;5016791;28;20469;-60
2024/04/03 08:46:57;;;;;;;5.33;4.50;;;13.10;99.90;;;;;;5016477;28;20478;-61
2024/04/03 08:49:28;;;;;;;8.33;5.50;;;13.10;99.90;;;;;;5014403;28;20481;-61
2024/04/03 08:52:08;;;;;;;6.30;4.43;;;12.10;99.90;;;;;;5013309;28;20436;-61
2024/04/03 08:54:34;;;;;;;5.17;4.67;;;11.80;99.90;;;;;;5014234;28;20453;-62
2024/04/03 08:57:05;;;;;;;4.97;4.40;;;12.60;99.90;;;;;;5015523;28;20995;-60
2024/04/03 08:59:32;;;;;;;4.80;4.30;;;13.00;99.90;;;;;;5014921;28;20445;-61
2024/04/03 09:01:58;;;;;;;6.00;4.40;;;13.10;99.90;;;;;;5016079;28;20833;-61
2024/04/03 09:04:24;;;;;;;5.13;4.63;;;13.20;99.90;;;;;;5015503;28;20453;-61
2024/04/03 09:06:50;;;;;;;4.63;4.17;;;12.60;99.90;;;;;;5014499;28;20498;-60
2024/04/03 09:09:31;;;;;;;4.90;4.40;;;13.10;99.90;;;;;;5014836;28;20506;-60
2024/04/03 09:12:05;;;;;;;5.43;4.07;;;13.40;99.90;;;;;;5014709;28;20182;-60
2024/04/03 09:14:31;;;;;;;4.50;3.60;;;13.30;99.90;;;;;;5014474;28;20456;-60
2024/04/03 09:17:00;;;;;;;7.03;3.90;;;13.00;99.90;;;;;;5014900;28;20456;-63
2024/04/03 09:19:26;;;;;;;5.97;3.80;;;13.00;99.90;;;;;;5014134;28;20895;-63
2024/04/03 09:21:58;;;;;;;3.83;3.40;;;13.00;99.90;;;;;;5013960;28;20808;-62
2024/04/03 09:24:24;;;;;;;4.43;3.43;;;13.10;99.90;;;;;;5014216;28;20449;-62
2024/04/03 09:26:58;;;;;;;5.37;4.10;;;13.70;99.90;;;;;;5014828;28;20461;-61
2024/04/03 09:29:24;;;;;;;5.10;4.40;;;13.40;99.90;;;;;;5012147;28;20451;-60
2024/04/03 09:31:51;;;;;;;6.67;4.30;;;13.30;99.90;;;;;;5012467;28;20435;-62
2024/04/03 09:34:17;;;;;;;8.60;4.20;;;13.10;99.90;;;;;;5013459;28;20200;-61
2024/04/03 09:36:43;;;;;;;4.93;3.87;;;13.30;99.90;;;;;;5012864;28;20510;-61
2024/04/03 09:39:09;;;;;;;4.90;4.10;;;12.90;99.90;;;;;;5012219;28;20896;-60
2024/04/03 09:41:36;;;;;;;5.17;3.50;;;13.40;99.90;;;;;;5013981;28;20213;-64
2024/04/03 09:44:03;;;;;;;6.30;4.40;;;13.70;99.90;;;;;;5014675;28;20666;-61
2024/04/03 09:46:43;;;;;;;8.50;5.10;;;13.00;99.90;;;;;;5014023;28;20592;-61
2024/04/03 09:49:11;;;;;;;5.27;4.57;;;12.90;99.90;;;;;;5011187;28;20829;-60
2024/04/03 09:51:37;;;;;;;4.50;4.10;;;12.90;99.90;;;;;;5014283;28;21017;-61
2024/04/03 09:54:03;;;;;;;6.17;3.83;;;13.20;99.90;;;;;;5013550;28;20432;-61
2024/04/03 09:56:29;;;;;;;7.97;4.50;;;13.10;99.90;;;;;;5013750;28;20244;-56
2024/04/03 09:58:54;;;;;;;5.53;4.87;;;13.70;99.90;;;;;;5016860;28;20907;-59
2024/04/03 10:01:21;;;;;;;4.57;4.13;;;14.00;99.90;;;;;;5011815;28;20228;-57
2024/04/03 10:03:47;;;;;;;5.27;4.40;;;13.90;99.90;;;;;;5009981;28;20179;-57
2024/04/03 10:06:16;;;;;;;5.77;4.43;;;13.70;99.90;;;;;;5009093;28;20437;-59
2024/04/03 10:08:43;;;;;;;4.60;4.20;;;13.30;99.90;;;;;;5009645;28;20421;-55
2024/04/03 10:11:16;;;;;;;8.27;3.80;;;13.50;99.90;;;;;;5010353;28;20423;-56
2024/04/03 10:13:46;;;;;;;5.80;4.30;;;13.70;99.90;;;;;;5014509;28;20450;-58
2024/04/03 10:16:13;;;;;;;10.33;4.03;;;13.90;99.90;;;;;;4993104;28;20451;-54
2024/04/03 10:18:42;;;;;;;4.53;3.80;;;13.90;99.90;;;;;;5009700;28;20446;-58
2024/04/03 10:21:09;;;;;;;4.67;3.90;;;14.20;99.90;;;;;;5004305;28;20966;-56
2024/04/03 10:23:48;;;;;;;6.90;4.83;;;14.30;99.90;;;;;;5008864;28;20506;-61
2024/04/03 10:26:15;;;;;;;5.33;4.20;;;13.70;99.90;;;;;;5009365;28;20416;-55
2024/04/03 10:28:42;;;;;;;9.17;5.13;;;13.40;99.90;;;;;;5009810;28;20449;-59
2024/04/03 10:31:09;;;;;;;5.83;4.90;;;13.90;99.90;;;;;;5003089;28;20926;-56
2024/04/03 10:33:34;;;;;;;8.10;4.90;;;13.80;99.90;;;;;;5007806;28;20526;-52
2024/04/03 10:36:01;;;;;;;4.40;3.90;;;14.10;99.90;;;;;;5011224;28;20499;-57
2024/04/03 10:38:27;;;;;;;5.37;4.37;;;13.80;99.90;;;;;;5011233;28;20561;-58
2024/04/03 10:40:55;;;;;;;5.90;4.63;;;13.60;99.90;;;;;;5009401;28;20459;-57
2024/04/03 10:43:21;;;;;;;7.83;4.87;;;13.40;99.90;;;;;;5009921;28;20693;-58
2024/04/03 10:45:50;;;;;;;7.33;4.77;;;13.90;99.90;;;;;;5009442;28;20459;-58
2024/04/03 10:48:17;;;;;;;5.93;4.93;;;14.60;99.90;;;;;;5009315;28;20185;-58
2024/04/03 10:50:44;;;;;;;8.13;5.17;;;14.30;99.90;;;;;;5002236;28;20435;-57
2024/04/03 10:53:10;;;;;;;4.60;3.70;;;13.90;99.90;;;;;;5010585;28;20414;-59
2024/04/03 10:55:37;;;;;;;4.93;3.90;;;14.30;99.90;;;;;;5015450;28;20516;-58
2024/04/03 10:58:07;;;;;;;8.10;4.47;;;14.50;99.90;;;;;;5009999;28;20529;-59
2024/04/03 11:00:33;;;;;;;5.53;4.77;;;13.80;99.90;;;;;;5009763;28;20430;-60
2024/04/03 11:03:02;;;;;;;7.03;3.80;;;14.20;99.90;;;;;;5009952;28;20535;-59
2024/04/03 11:05:29;;;;;;;7.20;6.00;;;14.30;99.90;;;;;;5009612;28;20898;-60
2024/04/03 11:07:56;;;;;;;7.17;4.40;;;14.50;99.90;;;;;;5014587;28;20515;-58
2024/04/03 11:10:22;;;;;;;7.73;5.37;;;13.80;99.90;;;;;;5009429;28;20813;-60
2024/04/03 11:12:48;;;;;;;10.93;4.87;;;13.80;99.90;;;;;;5009042;28;20434;-56
2024/04/03 11:15:22;;;;;;;10.80;5.13;;;14.30;99.90;;;;;;5009584;28;20444;-53
2024/04/03 11:17:47;;;;;;;8.03;5.10;;;14.40;99.90;;;;;;5009585;28;20207;-59
2024/04/03 11:20:13;;;;;;;5.03;4.53;;;14.30;99.90;;;;;;5009542;28;20449;-59
2024/04/03 11:22:39;;;;;;;7.47;6.77;;;13.50;99.90;;;;;;5009385;28;20312;-59
2024/04/03 11:25:08;;;;;;;6.10;4.40;;;13.40;99.90;;;;;;5008756;28;20632;-57
2024/04/03 11:27:33;;;;;;;12.17;6.53;;;13.60;99.90;;;;;;5009273;28;20666;-57
2024/04/03 11:29:59;;;;;;;9.77;5.43;;;13.50;99.90;;;;;;5006942;28;20455;-59
2024/04/03 11:32:25;;;;;;;7.97;4.40;;;13.50;99.90;;;;;;5008274;28;20172;-56
2024/04/03 11:34:51;;;;;;;7.77;5.23;;;13.10;99.90;;;;;;5008700;28;20466;-63
2024/04/03 11:37:17;;;;;;;8.50;5.00;;;13.10;99.90;;;;;;5009171;28;20914;-62
2024/04/03 11:39:43;;;;;;;7.43;4.33;;;13.40;99.90;;;;;;5009039;28;20284;-62
2024/04/03 11:42:08;;;;;;;9.07;5.50;;;13.30;99.90;;;;;;5008333;28;20558;-58
2024/04/03 11:44:34;;;;;;;6.80;6.00;;;13.20;99.90;;;;;;5007295;28;20212;-57
2024/04/03 11:46:59;;;;;;;9.10;5.90;;;13.20;99.90;;;;;;5006832;28;20250;-57
2024/04/03 11:49:25;;;;;;;7.77;5.73;;;12.90;99.90;;;;;;5008313;28;20192;-61
2024/04/03 11:51:52;;;;;;;11.63;7.10;;;12.30;99.90;;;;;;5008299;28;20662;-65
2024/04/03 11:54:17;;;;;;;13.63;6.33;;;12.10;99.90;;;;;;5008759;28;20675;-61
2024/04/03 11:56:43;;;;;;;10.20;6.20;;;12.00;99.90;;;;;;5008803;28;20501;-63
2024/04/03 11:59:09;;;;;;;8.03;6.90;;;12.20;99.90;;;;;;5008456;28;20367;-61
2024/04/03 12:01:35;;;;;;;9.13;7.27;;;12.50;99.90;;;;;;5012618;28;20274;-62
2024/04/03 12:04:02;;;;;;;10.20;6.37;;;12.50;99.90;;;;;;5012140;28;20260;-63
2024/04/03 12:06:28;;;;;;;10.43;7.03;;;12.00;99.90;;;;;;5012985;28;20500;-58
2024/04/03 12:08:54;;;;;;;7.20;5.50;;;11.90;99.90;;;;;;5009734;28;20423;-65
2024/04/03 12:11:19;;;;;;;6.40;5.80;;;11.90;99.90;;;;;;5009851;28;20192;-67
2024/04/03 12:13:45;;;;;;;6.83;6.10;;;12.20;99.90;;;;;;5010523;28;20184;-61
2024/04/03 12:16:12;;;;;;;7.60;6.10;;;12.20;99.90;;;;;;5010875;28;20279;-58
2024/04/03 12:18:48;;;;;;;8.20;6.20;;;12.40;99.90;;;;;;5011868;28;20438;-60
2024/04/03 12:21:14;;;;;;;9.13;5.97;;;12.60;99.90;;;;;;5005964;28;20780;-59
2024/04/03 12:23:42;;;;;;;9.00;6.47;;;12.90;99.90;;;;;;5011026;28;20974;-58
2024/04/03 12:26:09;;;;;;;8.53;5.90;;;13.10;99.90;;;;;;5011193;28;20462;-60
2024/04/03 12:28:34;;;;;;;8.87;6.20;;;12.60;99.90;;;;;;5011402;28;20423;-58
2024/04/03 12:31:00;;;;;;;8.87;6.43;;;12.40;99.90;;;;;;5011490;28;20450;-60
2024/04/03 12:33:25;;;;;;;9.23;5.80;;;12.70;99.90;;;;;;5011916;28;20250;-59
2024/04/03 12:35:51;;;;;;;11.50;6.47;;;12.40;99.90;;;;;;5011610;28;20207;-60
2024/04/03 12:38:16;;;;;;;11.40;5.90;;;12.20;99.90;;;;;;5011854;28;20241;-58
2024/04/03 12:40:43;;;;;;;7.97;6.80;;;12.50;99.90;;;;;;5011787;28;20677;-56
2024/04/03 12:43:10;;;;;;;10.53;5.90;;;12.30;99.90;;;;;;5011749;28;20187;-57
2024/04/03 12:45:36;;;;;;;8.13;5.97;;;12.40;99.90;;;;;;5012016;28;20812;-60
2024/04/03 12:48:03;;;;;;;9.13;6.33;;;12.50;99.90;;;;;;5011674;28;20450;-57
2024/04/03 12:50:29;;;;;;;11.60;8.10;;;12.60;99.90;;;;;;5011765;28;20713;-57
2024/04/03 12:52:56;;;;;;;13.90;10.47;;;12.80;99.90;;;;;;5011309;28;20446;-55